createdAt,value
2022-07-31T00:00:12.185Z,96.88
2022-07-31T00:04:12.025Z,97.59
2022-07-31T00:08:09.217Z,97.05
2022-07-31T00:12:07.034Z,98.83
2022-07-31T00:16:04.701Z,99.63
2022-07-31T00:20:02.223Z,99.65
2022-07-31T00:23:59.370Z,99.85
2022-07-31T00:27:56.377Z,99.86
2022-07-31T00:31:53.397Z,100.00
2022-07-31T00:35:50.402Z,100.00
2022-07-31T00:39:47.567Z,100.00
2022-07-31T00:43:44.639Z,100.00
2022-07-31T00:47:42.711Z,100.00
2022-07-31T00:51:40.317Z,100.00
2022-07-31T00:55:41.808Z,100.00
2022-07-31T00:59:50.874Z,100.00
2022-07-31T01:03:48.156Z,100.00
2022-07-31T01:07:49.003Z,100.00
2022-07-31T01:12:07.421Z,100.00
2022-07-31T01:16:07.574Z,100.00
2022-07-31T01:20:06.223Z,100.00
2022-07-31T01:24:40.089Z,100.00
2022-07-31T01:29:18.979Z,100.00
2022-07-31T01:33:25.429Z,100.00
2022-07-31T01:37:34.633Z,100.00
2022-07-31T01:41:40.565Z,100.00
2022-07-31T01:45:42.983Z,100.00
2022-07-31T01:49:42.960Z,100.00
2022-07-31T01:53:43.459Z,100.00
2022-07-31T01:57:43.093Z,100.00
2022-07-31T02:01:42.164Z,100.00
2022-07-31T02:05:42.812Z,100.00
2022-07-31T02:09:53.701Z,100.00
2022-07-31T02:14:02.318Z,100.00
2022-07-31T02:18:03.308Z,100.00
2022-07-31T02:22:03.436Z,100.00
2022-07-31T02:26:03.707Z,100.00
2022-07-31T02:30:04.525Z,100.00
2022-07-31T02:34:01.916Z,100.00
2022-07-31T02:38:00.957Z,100.00
2022-07-31T02:42:01.876Z,100.00
2022-07-31T02:46:00.642Z,100.00
2022-07-31T02:49:58.769Z,100.00
2022-07-31T02:53:55.963Z,100.00
2022-07-31T02:57:55.743Z,100.00
2022-07-31T03:01:52.872Z,100.00
2022-07-31T03:05:50.019Z,100.00
2022-07-31T03:09:48.103Z,100.00
2022-07-31T03:14:13.559Z,100.00
2022-07-31T03:18:14.929Z,100.00
2022-07-31T03:22:15.446Z,100.00
2022-07-31T03:26:13.444Z,100.00
2022-07-31T03:30:25.316Z,100.00
2022-07-31T03:34:28.183Z,100.00
2022-07-31T03:38:40.785Z,100.00
2022-07-31T03:42:44.778Z,100.00
2022-07-31T03:46:42.544Z,100.00
2022-07-31T03:50:41.976Z,100.00
2022-07-31T03:54:39.225Z,100.00
2022-07-31T03:58:51.518Z,100.00
2022-07-31T04:02:50.112Z,100.00
2022-07-31T04:07:10.997Z,100.00
2022-07-31T04:11:08.171Z,100.00
2022-07-31T04:15:09.299Z,100.00
2022-07-31T04:19:06.566Z,100.00
2022-07-31T04:23:04.149Z,100.00
2022-07-31T04:27:24.542Z,100.00
2022-07-31T04:31:21.545Z,100.00
2022-07-31T04:35:19.063Z,100.00
2022-07-31T04:39:16.213Z,100.00
2022-07-31T04:43:13.317Z,100.00
2022-07-31T04:47:10.362Z,100.00
2022-07-31T04:51:24.126Z,100.00
2022-07-31T04:55:21.612Z,100.00
2022-07-31T04:59:22.428Z,100.00
2022-07-31T05:03:20.215Z,100.00
2022-07-31T05:07:17.234Z,100.00
2022-07-31T05:11:23.896Z,99.73
2022-07-31T05:15:21.068Z,100.00
2022-07-31T05:19:18.421Z,99.81
2022-07-31T05:23:33.992Z,97.25
2022-07-31T05:27:39.136Z,98.03
2022-07-31T05:31:38.529Z,97.22
2022-07-31T05:35:57.375Z,97.60
2022-07-31T05:39:54.962Z,97.73
2022-07-31T05:44:12.280Z,95.43
2022-07-31T05:48:18.804Z,93.65
2022-07-31T05:52:18.538Z,90.96
2022-07-31T05:56:22.386Z,88.36
2022-07-31T06:00:21.842Z,85.57
2022-07-31T06:04:19.974Z,83.64
2022-07-31T06:08:18.226Z,81.85
2022-07-31T06:12:18.368Z,81.55
2022-07-31T06:16:15.754Z,79.36
2022-07-31T06:20:14.559Z,78.36
2022-07-31T06:24:11.718Z,78.17
2022-07-31T06:28:13.692Z,77.86
2022-07-31T06:32:15.795Z,74.96
2022-07-31T06:36:13.041Z,75.28
2022-07-31T06:40:15.880Z,73.55
2022-07-31T06:44:34.619Z,72.52
2022-07-31T06:48:49.742Z,72.54
2022-07-31T06:52:51.509Z,72.15
2022-07-31T06:56:49.397Z,72.60
2022-07-31T07:00:46.455Z,70.40
2022-07-31T07:04:56.472Z,70.19
2022-07-31T07:09:00.842Z,69.04
2022-07-31T07:12:57.872Z,66.95
2022-07-31T07:16:55.121Z,65.04
2022-07-31T07:20:53.091Z,62.86
2022-07-31T07:24:50.313Z,63.20
2022-07-31T07:28:51.712Z,63.01
2022-07-31T07:32:49.200Z,60.78
2022-07-31T07:36:47.131Z,60.39
2022-07-31T07:40:57.606Z,58.68
2022-07-31T07:44:54.641Z,57.46
2022-07-31T07:48:53.044Z,56.69
2022-07-31T07:53:04.559Z,56.07
2022-07-31T07:57:22.468Z,53.49
2022-07-31T08:01:38.805Z,52.60
2022-07-31T08:05:49.831Z,50.27
2022-07-31T08:09:46.846Z,49.53
2022-07-31T08:14:05.381Z,46.38
2022-07-31T08:18:11.373Z,42.17
2022-07-31T08:22:09.184Z,39.64
2022-07-31T08:26:08.659Z,39.44
2022-07-31T08:30:06.609Z,39.89
2022-07-31T08:34:05.238Z,38.76
2022-07-31T08:38:05.008Z,37.74
2022-07-31T08:42:28.944Z,35.51
2022-07-31T08:46:27.426Z,33.28
2022-07-31T08:50:25.698Z,32.65
2022-07-31T08:54:26.331Z,34.47
2022-07-31T08:58:23.468Z,34.93
2022-07-31T09:02:22.249Z,33.31
2022-07-31T09:06:45.333Z,33.35
2022-07-31T09:10:47.740Z,33.47
2022-07-31T09:14:49.515Z,32.22
2022-07-31T09:19:51.152Z,31.32
2022-07-31T09:23:22.896Z,31.21
2022-07-31T09:27:28.296Z,31.00
2022-07-31T09:31:33.589Z,31.21
2022-07-31T09:35:53.567Z,33.25
2022-07-31T09:39:53.630Z,33.55
2022-07-31T09:44:11.001Z,32.97
2022-07-31T09:48:15.195Z,33.48
2022-07-31T09:52:21.329Z,33.03
2022-07-31T09:56:18.841Z,33.86
2022-07-31T10:00:17.393Z,33.14
2022-07-31T10:04:19.146Z,31.80
2022-07-31T10:08:18.110Z,31.68
2022-07-31T10:12:53.716Z,30.62
2022-07-31T10:16:58.549Z,29.84
2022-07-31T10:21:28.984Z,30.20
2022-07-31T10:25:41.320Z,29.75
2022-07-31T10:29:49.428Z,29.94
2022-07-31T10:33:47.782Z,29.28
2022-07-31T10:38:27.431Z,29.02
2022-07-31T10:43:13.868Z,29.53
2022-07-31T10:47:16.740Z,27.26
2022-07-31T10:51:32.570Z,27.30
2022-07-31T10:56:04.433Z,25.62
2022-07-31T11:00:22.937Z,24.51
2022-07-31T11:04:46.861Z,23.54
2022-07-31T11:08:51.562Z,25.58
2022-07-31T11:13:23.302Z,25.92
2022-07-31T11:18:21.122Z,24.75
2022-07-31T11:22:31.698Z,23.10
2022-07-31T11:26:33.113Z,23.69
2022-07-31T11:30:50.149Z,24.03
2022-07-31T11:34:50.495Z,26.04
2022-07-31T11:38:50.990Z,26.46
2022-07-31T11:42:55.904Z,26.02
2022-07-31T11:48:09.621Z,25.21
2022-07-31T11:51:23.837Z,24.42
2022-07-31T11:55:20.901Z,24.55
2022-07-31T11:59:46.393Z,23.96
2022-07-31T12:03:38.464Z,24.98
2022-07-31T12:07:37.496Z,24.59
2022-07-31T12:11:34.667Z,22.48
2022-07-31T12:15:31.760Z,21.69
2022-07-31T12:19:37.487Z,22.34
2022-07-31T12:23:52.098Z,22.39
2022-07-31T12:27:56.490Z,22.06
2022-07-31T12:31:54.639Z,22.14
2022-07-31T12:35:55.816Z,22.19
2022-07-31T12:40:00.003Z,23.94
2022-07-31T12:44:13.387Z,25.24
2022-07-31T12:48:11.787Z,24.13
2022-07-31T12:52:09.991Z,24.20
2022-07-31T12:56:12.411Z,24.91
2022-07-31T13:00:10.808Z,24.54
2022-07-31T13:04:18.223Z,23.73
2022-07-31T13:08:16.581Z,23.55
2022-07-31T13:12:13.637Z,22.88
2022-07-31T13:16:10.667Z,23.61
2022-07-31T13:20:08.348Z,23.99
2022-07-31T13:24:12.253Z,24.77
2022-07-31T13:28:09.406Z,24.70
2022-07-31T13:32:06.806Z,26.31
2022-07-31T13:36:05.859Z,26.61
2022-07-31T13:40:03.485Z,27.66
2022-07-31T13:44:01.630Z,27.48
2022-07-31T13:48:00.504Z,24.17
2022-07-31T13:52:00.530Z,24.84
2022-07-31T13:55:58.839Z,26.88
2022-07-31T13:59:55.813Z,28.55
2022-07-31T14:03:52.781Z,27.75
2022-07-31T14:07:51.790Z,27.00
2022-07-31T14:11:50.061Z,26.74
2022-07-31T14:15:48.160Z,26.06
2022-07-31T14:19:45.317Z,25.62
2022-07-31T14:23:42.747Z,23.84
2022-07-31T14:27:40.013Z,22.28
2022-07-31T14:31:37.037Z,22.08
2022-07-31T14:35:34.262Z,22.61
2022-07-31T14:39:31.677Z,23.06
2022-07-31T14:43:28.764Z,23.80
2022-07-31T14:47:26.378Z,24.95
2022-07-31T14:51:23.396Z,26.37
2022-07-31T14:55:21.066Z,28.14
2022-07-31T14:59:18.212Z,27.56
2022-07-31T15:03:15.309Z,27.56
2022-07-31T15:07:34.193Z,28.91
2022-07-31T15:11:58.276Z,29.76
2022-07-31T15:15:48.458Z,30.63
2022-07-31T15:19:45.470Z,30.58
2022-07-31T15:23:43.186Z,33.10
2022-07-31T15:27:40.177Z,33.24
2022-07-31T15:31:37.258Z,33.82
2022-07-31T15:35:34.294Z,34.04
2022-07-31T15:39:31.340Z,34.35
2022-07-31T15:43:28.522Z,34.34
2022-07-31T15:47:25.891Z,33.67
2022-07-31T15:51:23.911Z,34.65
2022-07-31T15:55:21.402Z,32.96
2022-07-31T15:59:18.822Z,32.48
2022-07-31T16:03:18.136Z,32.39
2022-07-31T16:08:30.273Z,32.72
2022-07-31T16:12:04.248Z,32.31
2022-07-31T16:15:49.529Z,32.17
2022-07-31T16:19:46.529Z,32.70
2022-07-31T16:23:43.879Z,33.40
2022-07-31T16:27:41.090Z,32.88
2022-07-31T16:31:38.395Z,33.19
2022-07-31T16:35:35.409Z,33.34
2022-07-31T16:39:32.485Z,34.53
2022-07-31T16:43:47.206Z,34.07
2022-07-31T16:47:51.358Z,34.67
2022-07-31T16:51:48.697Z,34.59
2022-07-31T16:55:53.117Z,34.89
2022-07-31T16:59:58.187Z,35.23
2022-07-31T17:04:00.508Z,34.87
2022-07-31T17:08:00.190Z,34.96
2022-07-31T17:11:57.601Z,35.30
2022-07-31T17:15:54.603Z,35.31
2022-07-31T17:19:55.131Z,35.52
2022-07-31T17:23:53.383Z,35.37
2022-07-31T17:27:53.453Z,35.68
2022-07-31T17:31:50.633Z,35.65
2022-07-31T17:35:47.651Z,35.93
2022-07-31T17:39:48.326Z,36.68
2022-07-31T17:43:50.118Z,36.69
2022-07-31T17:48:03.717Z,36.87
2022-07-31T17:52:01.104Z,36.99
2022-07-31T17:55:58.089Z,37.19
2022-07-31T17:59:57.573Z,37.56
2022-07-31T18:03:54.582Z,37.72
2022-07-31T18:07:52.050Z,38.79
2022-07-31T18:11:50.797Z,39.96
2022-07-31T18:15:47.780Z,40.69
2022-07-31T18:19:45.428Z,41.37
2022-07-31T18:23:47.178Z,41.47
2022-07-31T18:27:44.559Z,41.99
2022-07-31T18:31:41.586Z,42.14
2022-07-31T18:35:38.757Z,42.67
2022-07-31T18:39:48.839Z,43.87
2022-07-31T18:43:46.408Z,44.04
2022-07-31T18:47:43.431Z,43.78
2022-07-31T18:51:41.333Z,43.79
2022-07-31T18:55:38.351Z,44.69
2022-07-31T18:59:37.308Z,44.30
2022-07-31T19:03:34.810Z,44.77
2022-07-31T19:07:35.871Z,45.39
2022-07-31T19:11:33.371Z,46.33
2022-07-31T19:15:30.773Z,46.65
2022-07-31T19:19:29.051Z,46.18
2022-07-31T19:23:39.133Z,47.18
2022-07-31T19:27:48.583Z,47.40
2022-07-31T19:31:48.280Z,48.13
2022-07-31T19:35:55.317Z,48.89
2022-07-31T19:39:55.787Z,48.41
2022-07-31T19:43:53.105Z,48.26
2022-07-31T19:47:50.249Z,48.76
2022-07-31T19:51:47.368Z,49.23
2022-07-31T19:55:44.460Z,50.07
2022-07-31T19:59:43.207Z,50.71
2022-07-31T20:03:40.564Z,50.95
2022-07-31T20:07:40.863Z,51.54
2022-07-31T20:11:37.865Z,52.93
2022-07-31T20:15:52.442Z,52.25
2022-07-31T20:20:03.010Z,52.37
2022-07-31T20:24:07.642Z,52.49
2022-07-31T20:28:07.172Z,53.40
2022-07-31T20:32:06.836Z,53.50
2022-07-31T20:36:07.589Z,53.74
2022-07-31T20:40:06.964Z,53.43
2022-07-31T20:44:04.165Z,54.31
2022-07-31T20:48:01.183Z,54.24
2022-07-31T20:51:58.212Z,55.16
2022-07-31T20:55:56.225Z,55.53
2022-07-31T20:59:53.783Z,56.04
2022-07-31T21:03:50.823Z,55.66
2022-07-31T21:07:47.781Z,55.90
2022-07-31T21:11:44.801Z,56.14
2022-07-31T21:15:45.064Z,56.04
2022-07-31T21:19:42.432Z,56.07
2022-07-31T21:23:39.693Z,56.27
2022-07-31T21:27:38.936Z,56.72
2022-07-31T21:31:36.489Z,56.58
2022-07-31T21:35:47.126Z,56.53
2022-07-31T21:39:44.263Z,56.45
2022-07-31T21:43:59.143Z,57.37
2022-07-31T21:48:00.650Z,57.62
2022-07-31T21:51:57.947Z,57.68
2022-07-31T21:55:58.021Z,57.98
2022-07-31T21:59:54.978Z,57.87
2022-07-31T22:03:51.965Z,57.39
2022-07-31T22:07:51.605Z,57.16
2022-07-31T22:12:01.333Z,57.78
2022-07-31T22:16:01.007Z,60.15
2022-07-31T22:20:01.464Z,60.99
2022-07-31T22:23:58.715Z,61.45
2022-07-31T22:27:56.057Z,61.34
2022-07-31T22:31:53.785Z,60.91
2022-07-31T22:35:59.011Z,61.03
2022-07-31T22:40:00.044Z,62.23
2022-07-31T22:44:13.766Z,63.46
2022-07-31T22:48:15.046Z,64.14
2022-07-31T22:52:15.199Z,64.89
2022-07-31T22:56:12.207Z,65.39
2022-07-31T23:00:12.456Z,66.00
2022-07-31T23:04:09.454Z,66.62
2022-07-31T23:08:06.487Z,67.02
2022-07-31T23:12:06.575Z,66.90
2022-07-31T23:16:03.981Z,67.83
2022-07-31T23:20:00.978Z,67.45
2022-07-31T23:23:57.949Z,67.50
2022-07-31T23:27:54.927Z,68.35
2022-07-31T23:31:51.938Z,68.62
2022-07-31T23:35:48.936Z,68.61
2022-07-31T23:39:45.956Z,68.35
2022-07-31T23:43:55.511Z,68.56
2022-07-31T23:47:52.754Z,68.50
2022-07-31T23:51:49.761Z,68.88
2022-07-31T23:55:49.216Z,69.63
2022-07-31T23:59:46.252Z,70.62
